Metar GG30 METAR message from awiacja.imgw.pl Metar G30 EPKT METAR EPKT 201530Z 18004KT 9999 FEW040 04/M02 Q1021 =